Fort Yates, North Dakota
Current Conditions -  °F | °C
As of 6:15 PM on Monday 26 Jan 2015 (Local Time) from K7L2 Reporting Station
Clear Clear  
Wind Chill: 28°   Ceiling: Unl
Heat Index: 34°   Visibility: 10mi
Dew Point: 34°   Wind: 7mph
Humidity: 100%   Direction: 130°SE
Pressure: 29.98"   Gusts: NA
Location:  46.09°N, 100.64°W
Report Text: K7L2 270115Z AUTO 13006KT 10SM CLR 01/01 A2998 RMK AO2
Loading
Personal Weather Stations






























Interactive Weather Map New forecast layout! Learn more

10-Day Weather Forecast

Advertisements
Track Severe Weather on mobile